Time;durP1;ratioP1;P1;durP2;ratioP2;P2;SDS_P1;SDS_P2;PMS_P1;PMS_P2;Temp;Humidity;BMP_temperature;BMP_pressure;BME280_temperature;BME280_humidity;BME280_pressure;Samples;Min_cycle;Max_cycle;Signal;HPM_P1;HPM_P2
2021/08/02 00:04:56;;;;;;;0.00;0.00;;;11.30;99.90;;;;;;20749533;28;20048;-50
2021/08/02 00:14:58;;;;;;;0.20;0.10;;;11.10;99.90;;;;;;20750262;28;20088;-51
2021/08/02 00:25:01;;;;;;;0.10;0.00;;;11.10;99.90;;;;;;20750427;28;20029;-49
2021/08/02 00:35:04;;;;;;;0.38;0.00;;;11.30;99.90;;;;;;20748410;28;20026;-48
2021/08/02 00:45:09;;;;;;;0.10;0.00;;;11.40;99.90;;;;;;20747625;28;20607;-52
2021/08/02 00:55:12;;;;;;;0.63;0.00;;;11.60;99.90;;;;;;20746666;28;20108;-51
2021/08/02 01:05:15;;;;;;;0.00;0.00;;;11.60;99.90;;;;;;20762758;28;20041;-50
2021/08/02 01:15:20;;;;;;;0.20;0.03;;;11.50;99.90;;;;;;20825555;28;20092;-51
2021/08/02 01:25:34;;;;;;;0.10;0.00;;;11.80;99.90;;;;;;20823289;28;20037;-50
2021/08/02 01:35:37;;;;;;;0.05;0.00;;;11.70;99.90;;;;;;20744110;28;20100;-54
2021/08/02 01:45:57;;;;;;;0.10;0.00;;;11.60;99.90;;;;;;20742042;28;20041;-54
2021/08/02 01:56:12;;;;;;;0.20;0.00;;;11.40;99.90;;;;;;20742013;28;20038;-55
2021/08/02 02:06:16;;;;;;;0.00;0.00;;;11.40;99.90;;;;;;20667353;28;20357;-54
2021/08/02 02:16:27;;;;;;;0.03;0.00;;;11.50;99.90;;;;;;20659721;28;20833;-51
2021/08/02 02:26:32;;;;;;;1.17;0.00;;;11.70;99.90;;;;;;20658931;28;20046;-52
2021/08/02 02:36:36;;;;;;;0.00;0.00;;;11.90;99.90;;;;;;20659864;28;20554;-53
2021/08/02 02:46:38;;;;;;;0.00;0.00;;;12.10;99.90;;;;;;20657879;28;20041;-50
2021/08/02 02:56:40;;;;;;;0.00;0.00;;;12.10;99.90;;;;;;20715926;28;20038;-53
2021/08/02 03:06:43;;;;;;;0.00;0.00;;;12.20;99.90;;;;;;20739585;28;20310;-51
2021/08/02 03:16:45;;;;;;;0.00;0.00;;;12.30;99.90;;;;;;20737850;28;20348;-52
2021/08/02 03:26:52;;;;;;;0.00;0.00;;;12.40;99.90;;;;;;20738821;28;20030;-52
2021/08/02 03:36:56;;;;;;;0.00;0.00;;;12.40;99.90;;;;;;20745148;28;20029;-49
2021/08/02 03:47:00;;;;;;;0.00;0.00;;;12.20;99.90;;;;;;20751253;28;20457;-55
2021/08/02 03:57:04;;;;;;;0.00;0.00;;;12.00;99.90;;;;;;20750892;28;20064;-54
2021/08/02 04:07:06;;;;;;;400.15;33.47;;;12.00;99.90;;;;;;20751112;28;20042;-52
2021/08/02 04:17:08;;;;;;;0.10;0.10;;;11.90;99.90;;;;;;20750038;28;20061;-55
2021/08/02 04:27:10;;;;;;;0.00;0.00;;;11.90;99.90;;;;;;20749209;28;20037;-50
2021/08/02 04:37:11;;;;;;;0.00;0.00;;;12.00;99.90;;;;;;20748353;28;20030;-51
2021/08/02 04:47:13;;;;;;;0.00;0.00;;;12.30;99.90;;;;;;20747364;28;20052;-54
2021/08/02 04:57:15;;;;;;;0.20;0.20;;;12.50;99.90;;;;;;20746488;28;20345;-53
2021/08/02 05:07:17;;;;;;;223.48;103.47;;;12.40;99.90;;;;;;20779466;28;20041;-49
2021/08/02 05:17:19;;;;;;;0.20;0.10;;;12.30;99.90;;;;;;20827260;28;20033;-50
2021/08/02 05:27:20;;;;;;;0.10;0.10;;;12.30;99.90;;;;;;20808579;28;20088;-52
2021/08/02 05:37:22;;;;;;;0.60;0.20;;;12.30;99.90;;;;;;20744053;28;20053;-51
2021/08/02 05:47:24;;;;;;;0.65;0.40;;;12.40;99.90;;;;;;20743193;28;20038;-50
2021/08/02 05:57:26;;;;;;;0.10;0.10;;;12.70;99.90;;;;;;20738436;28;20026;-53
2021/08/02 06:07:27;;;;;;;0.20;0.10;;;12.90;99.90;;;;;;20659537;28;20121;-49
2021/08/02 06:17:29;;;;;;;1.00;0.00;;;13.20;99.90;;;;;;20660481;28;20042;-54
2021/08/02 06:27:31;;;;;;;0.38;0.10;;;13.60;99.90;;;;;;20659770;28;20089;-53
2021/08/02 06:37:32;;;;;;;0.03;0.00;;;14.00;99.90;;;;;;20659313;28;20042;-49
2021/08/02 06:47:34;;;;;;;0.10;0.00;;;16.60;99.90;;;;;;20658697;28;20046;-49
2021/08/02 06:57:37;;;;;;;0.10;0.10;;;16.10;99.90;;;;;;20677371;28;20088;-49
2021/08/02 07:07:38;;;;;;;0.00;0.00;;;16.30;99.90;;;;;;20740753;28;20029;-48
2021/08/02 07:17:40;;;;;;;0.10;0.00;;;18.10;99.10;;;;;;20753951;28;20446;-49
2021/08/02 07:27:42;;;;;;;0.10;0.10;;;19.80;95.30;;;;;;20751782;28;20103;-47
2021/08/02 07:37:44;;;;;;;0.10;0.00;;;17.60;95.30;;;;;;20752827;28;20061;-53
2021/08/02 07:47:45;;;;;;;0.50;0.08;;;16.20;99.90;;;;;;20752059;28;20025;-51
2021/08/02 07:57:47;;;;;;;0.00;0.00;;;17.70;96.60;;;;;;20750126;28;20038;-50
2021/08/02 08:07:52;;;;;;;0.57;0.20;;;18.20;95.90;;;;;;20749221;28;20030;-53
2021/08/02 08:17:53;;;;;;;0.10;0.10;;;19.30;94.40;;;;;;20748786;28;20088;-47
2021/08/02 08:27:55;;;;;;;0.00;0.00;;;19.70;93.80;;;;;;20748644;28;20096;-48
2021/08/02 08:37:56;;;;;;;0.63;0.10;;;19.80;92.50;;;;;;20748453;28;20030;-51
2021/08/02 08:47:59;;;;;;;0.00;0.00;;;21.30;96.50;;;;;;20747385;28;20034;-55
2021/08/02 08:58:03;;;;;;;0.10;0.10;;;22.40;95.70;;;;;;20746633;28;20053;-50
2021/08/02 09:08:06;;;;;;;0.20;0.00;;;23.90;93.60;;;;;;20788314;28;20033;-51
2021/08/02 09:18:14;;;;;;;0.13;0.10;;;23.10;91.30;;;;;;20826407;28;20550;-56
2021/08/02 09:28:21;;;;;;;0.50;0.13;;;23.20;89.00;;;;;;20800762;28;20029;-51
2021/08/02 09:38:25;;;;;;;0.85;0.13;;;23.90;90.60;;;;;;20743859;28;20037;-56
2021/08/02 09:48:36;;;;;;;0.98;0.30;;;23.00;83.20;;;;;;20741504;28;20041;-49
2021/08/02 09:58:43;;;;;;;0.40;0.38;;;22.70;91.80;;;;;;20741890;28;20041;-54
2021/08/02 10:08:46;;;;;;;0.57;0.40;;;22.00;93.20;;;;;;20737202;28;20057;-54
2021/08/02 10:18:51;;;;;;;0.75;0.32;;;20.90;94.60;;;;;;20737979;28;20030;-54
2021/08/02 10:29:04;;;;;;;0.98;0.32;;;20.50;96.40;;;;;;20740057;28;20555;-56
2021/08/02 10:39:06;;;;;;;0.88;0.43;;;20.20;96.30;;;;;;20739915;28;20373;-53
2021/08/02 10:49:16;;;;;;;1.52;0.50;;;21.00;98.30;;;;;;20752454;28;20030;-54
2021/08/02 10:59:20;;;;;;;0.60;0.40;;;22.30;94.40;;;;;;20726445;28;20101;-50
2021/08/02 11:09:33;;;;;;;1.15;0.52;;;20.30;97.70;;;;;;20673954;28;20034;-53
2021/08/02 11:19:35;;;;;;;1.35;0.70;;;18.90;99.90;;;;;;20672820;28;20057;-51
2021/08/02 11:29:37;;;;;;;2.47;1.08;;;18.10;99.90;;;;;;20672356;28;20084;-53
2021/08/02 11:39:45;;;;;;;2.97;1.13;;;17.30;99.90;;;;;;20671471;28;20057;-52
2021/08/02 11:49:49;;;;;;;2.67;1.60;;;16.10;99.90;;;;;;20680387;28;20026;-49
2021/08/02 12:00:04;;;;;;;3.58;2.30;;;15.40;99.90;;;;;;20726942;28;20046;-51
2021/08/02 12:10:19;;;;;;;2.92;2.15;;;15.10;99.90;;;;;;20750224;28;20030;-53
2021/08/02 12:20:39;;;;;;;14.57;2.58;;;15.10;99.90;;;;;;20749581;28;20030;-53
2021/08/02 12:30:43;;;;;;;2.57;1.40;;;15.50;99.90;;;;;;20730950;28;20088;-54
2021/08/02 12:40:45;;;;;;;2.65;1.25;;;16.10;99.90;;;;;;20747846;28;20052;-54
2021/08/02 12:50:47;;;;;;;2.65;0.90;;;16.30;99.90;;;;;;20746049;28;20026;-52
2021/08/02 13:00:49;;;;;;;5.78;1.70;;;16.50;99.90;;;;;;20745493;28;20046;-49
2021/08/02 13:10:51;;;;;;;1.52;1.20;;;16.80;99.90;;;;;;20745077;28;20038;-52
2021/08/02 13:20:56;;;;;;;1.52;1.02;;;17.00;99.90;;;;;;20745297;28;20100;-50
2021/08/02 13:30:58;;;;;;;1.20;1.00;;;17.70;99.90;;;;;;20744375;28;20026;-53
2021/08/02 13:41:00;;;;;;;1.48;1.30;;;18.40;99.90;;;;;;20743719;28;20026;-51
2021/08/02 13:51:02;;;;;;;1.70;1.38;;;18.50;99.90;;;;;;20742824;28;20096;-48
2021/08/02 14:01:06;;;;;;;3.85;2.53;;;18.40;99.90;;;;;;20774590;28;20499;-53
2021/08/02 14:11:19;;;;;;;2.72;1.60;;;19.20;99.90;;;;;;20823366;28;20037;-51
2021/08/02 14:21:22;;;;;;;2.15;1.60;;;19.70;99.90;;;;;;20804745;28;20030;-53
2021/08/02 14:31:24;;;;;;;4.65;1.63;;;20.90;99.90;;;;;;20823131;28;20072;-53
2021/08/02 14:41:37;;;;;;;1.40;0.90;;;20.70;99.90;;;;;;20814248;28;20031;-53
2021/08/02 14:51:50;;;;;;;2.65;0.80;;;20.60;99.90;;;;;;20741245;28;20041;-54
2021/08/02 15:01:52;;;;;;;1.80;0.85;;;21.70;99.90;;;;;;20739812;28;20448;-50
2021/08/02 15:11:54;;;;;;;2.55;0.90;;;21.10;99.90;;;;;;20739362;28;20059;-56
2021/08/02 15:22:03;;;;;;;2.97;0.93;;;20.70;99.90;;;;;;20739113;28;20435;-51
2021/08/02 15:32:06;;;;;;;1.80;0.90;;;20.30;99.90;;;;;;20745959;28;20088;-52
2021/08/02 15:42:09;;;;;;;4.43;1.17;;;20.20;99.90;;;;;;20752893;28;20503;-55
2021/08/02 15:52:14;;;;;;;2.25;1.30;;;19.70;99.90;;;;;;20751964;28;20034;-55
2021/08/02 16:02:36;;;;;;;1.85;0.95;;;18.90;99.90;;;;;;20751381;28;20391;-56
2021/08/02 16:12:46;;;;;;;4.80;1.60;;;18.60;99.90;;;;;;20750947;28;20037;-54
2021/08/02 16:22:49;;;;;;;5.28;0.80;;;18.50;99.90;;;;;;20750000;28;20034;-53
2021/08/02 16:32:54;;;;;;;3.63;1.95;;;18.40;99.90;;;;;;20748763;28;20480;-52
2021/08/02 16:42:56;;;;;;;3.50;2.05;;;17.90;99.90;;;;;;20747462;28;20037;-52
2021/08/02 16:52:58;;;;;;;3.83;2.40;;;17.20;99.90;;;;;;20747384;28;20034;-53
2021/08/02 17:03:00;;;;;;;2.10;1.40;;;16.90;99.90;;;;;;20688139;28;20058;-50
2021/08/02 17:13:02;;;;;;;3.85;1.55;;;16.90;99.90;;;;;;20744315;28;20069;-56
2021/08/02 17:23:04;;;;;;;3.72;1.60;;;16.60;99.90;;;;;;20745031;28;20427;-56
2021/08/02 17:33:06;;;;;;;2.70;1.75;;;16.10;99.90;;;;;;20683995;28;20053;-52
2021/08/02 17:43:07;;;;;;;2.78;1.95;;;15.50;99.90;;;;;;20662711;28;20030;-57
2021/08/02 17:53:10;;;;;;;5.63;2.63;;;14.80;99.90;;;;;;20661230;28;20546;-51
2021/08/02 18:03:12;;;;;;;4.28;2.28;;;14.10;99.90;;;;;;20710762;28;20104;-49
2021/08/02 18:13:14;;;;;;;4.90;2.45;;;13.50;99.90;;;;;;20724452;28;20114;-50
2021/08/02 18:23:16;;;;;;;5.35;2.40;;;13.10;99.90;;;;;;20723906;28;20037;-50
2021/08/02 18:33:17;;;;;;;4.43;1.90;;;12.90;99.90;;;;;;20741140;28;20041;-49
2021/08/02 18:43:20;;;;;;;4.57;2.05;;;12.70;99.90;;;;;;20717413;28;20081;-51
2021/08/02 18:53:21;;;;;;;9.40;2.42;;;12.60;99.90;;;;;;20659536;28;20080;-54
2021/08/02 19:03:23;;;;;;;5.80;2.78;;;12.60;99.90;;;;;;20704880;28;20050;-52
2021/08/02 19:13:27;;;;;;;1999.90;999.90;;;12.80;99.90;;;;;;20736991;28;20403;-52
2021/08/02 19:23:30;;;;;;;3.47;2.08;;;13.00;99.90;;;;;;20737100;28;20047;-52
2021/08/02 19:33:32;;;;;;;5.05;2.42;;;13.10;99.90;;;;;;20753899;28;20427;-50
2021/08/02 19:43:35;;;;;;;3.63;2.17;;;13.00;99.90;;;;;;20735381;28;20037;-48
2021/08/02 19:53:41;;;;;;;5.53;2.72;;;13.10;99.90;;;;;;20793410;28;20061;-52
2021/08/02 20:03:44;;;;;;;4.03;2.03;;;13.00;99.90;;;;;;20833087;28;20045;-50
2021/08/02 20:13:47;;;;;;;4.05;2.28;;;13.10;99.90;;;;;;20832083;28;20048;-51
2021/08/02 20:23:50;;;;;;;2.95;1.77;;;13.00;99.90;;;;;;20831063;28;20091;-50
2021/08/02 20:33:58;;;;;;;4.68;2.42;;;12.80;99.90;;;;;;20829647;28;20064;-49
2021/08/02 20:44:03;;;;;;;5.63;2.67;;;12.30;99.90;;;;;;20778447;28;20026;-59
2021/08/02 20:54:09;;;;;;;6.63;3.25;;;12.00;99.90;;;;;;20747542;28;20037;-52
2021/08/02 21:04:26;;;;;;;5.97;3.90;;;11.70;99.90;;;;;;20754965;28;20458;-57
2021/08/02 21:14:33;;;;;;;8.80;4.65;;;11.40;99.90;;;;;;20827734;28;20529;-58
2021/08/02 21:24:40;;;;;;;9.02;4.72;;;11.30;99.90;;;;;;20827381;28;20130;-58
2021/08/02 21:34:42;;;;;;;11.82;5.40;;;11.40;99.90;;;;;;20753054;28;20476;-62
2021/08/02 21:44:45;;;;;;;8.80;5.85;;;11.30;99.90;;;;;;20743784;28;20030;-49
2021/08/02 21:54:47;;;;;;;10.63;5.97;;;11.30;99.90;;;;;;20742664;28;20044;-53
2021/08/02 22:04:49;;;;;;;10.30;5.53;;;11.60;99.90;;;;;;20805360;28;20053;-53
2021/08/02 22:14:51;;;;;;;11.73;6.25;;;11.60;99.90;;;;;;20805581;28;20037;-54
2021/08/02 22:24:52;;;;;;;10.38;5.60;;;11.80;99.90;;;;;;20823079;28;20084;-48
2021/08/02 22:34:54;;;;;;;9.82;6.00;;;11.80;99.90;;;;;;20805343;28;20034;-49
2021/08/02 22:44:56;;;;;;;9.20;5.40;;;11.70;99.90;;;;;;20799098;28;20834;-52
2021/08/02 22:54:57;;;;;;;13.10;8.00;;;11.60;99.90;;;;;;20757409;28;20049;-54
2021/08/02 23:04:59;;;;;;;13.23;8.15;;;11.30;99.90;;;;;;20755902;28;20447;-50
2021/08/02 23:15:05;;;;;;;12.93;7.90;;;11.20;99.90;;;;;;20755452;28;20121;-54
2021/08/02 23:25:07;;;;;;;14.35;8.38;;;11.10;99.90;;;;;;20754587;28;20034;-50
2021/08/02 23:35:09;;;;;;;15.98;9.80;;;11.00;99.90;;;;;;20753703;28;20037;-54
2021/08/02 23:45:13;;;;;;;14.90;7.65;;;10.80;99.90;;;;;;20752410;28;20091;-52
2021/08/02 23:55:16;;;;;;;13.30;8.40;;;10.70;99.90;;;;;;20833725;28;20632;-48
